Time;durP1;ratioP1;P1;durP2;ratioP2;P2;SDS_P1;SDS_P2;PMS_P1;PMS_P2;Temp;Humidity;BMP_temperature;BMP_pressure;BME280_temperature;BME280_humidity;BME280_pressure;Samples;Min_cycle;Max_cycle;Signal;HPM_P1;HPM_P2
2022/05/29 00:00:51;;;;;;;6.82;3.50;;;;;;;;;;6254426;22;20075;-86
2022/05/29 00:03:17;;;;;;;5.82;3.53;;;;;;;;;;6283670;22;20004;-85
2022/05/29 00:05:44;;;;;;;3.60;3.00;;;;;;;;;;6255024;22;20050;-90
2022/05/29 00:08:18;;;;;;;4.60;3.47;;;;;;;;;;6253630;22;20019;-86
2022/05/29 00:10:43;;;;;;;4.78;3.58;;;;;;;;;;6256454;22;20334;-88
2022/05/29 00:13:11;;;;;;;6.80;3.40;;;;;;;;;;6278205;22;20082;-86
2022/05/29 00:15:38;;;;;;;3.90;3.00;;;;;;;;;;6252915;22;20103;-85
2022/05/29 00:18:05;;;;;;;5.88;3.53;;;;;;;;;;6254439;22;20012;-87
2022/05/29 00:20:30;;;;;;;5.03;3.45;;;;;;;;;;6289857;22;20020;-86
2022/05/29 00:22:56;;;;;;;4.65;3.35;;;;;;;;;;6262675;22;20003;-89
2022/05/29 00:25:21;;;;;;;4.90;3.50;;;;;;;;;;6282477;22;20006;-83
2022/05/29 00:27:46;;;;;;;6.43;3.58;;;;;;;;;;6278987;22;20000;-85
2022/05/29 00:30:12;;;;;;;4.55;3.65;;;;;;;;;;6277012;22;20039;-87
2022/05/29 00:32:37;;;;;;;11.32;3.90;;;;;;;;;;6254541;22;20007;-86
2022/05/29 00:35:03;;;;;;;5.82;4.20;;;;;;;;;;6277874;22;20000;-85
2022/05/29 00:37:29;;;;;;;6.45;3.90;;;;;;;;;;6278824;22;20004;-84
2022/05/29 00:39:54;;;;;;;7.68;4.75;;;;;;;;;;6255092;22;20007;-86
2022/05/29 00:42:22;;;;;;;6.15;4.20;;;;;;;;;;6280356;22;20004;-90
2022/05/29 00:44:47;;;;;;;5.95;4.30;;;;;;;;;;6254730;22;19999;-88
2022/05/29 00:47:18;;;;;;;11.35;4.03;;;;;;;;;;6279624;22;20018;-83
2022/05/29 00:49:44;;;;;;;8.82;4.18;;;;;;;;;;6277095;22;20004;-89
2022/05/29 00:52:28;;;;;;;8.85;4.07;;;;;;;;;;6276303;22;20003;-86
2022/05/29 00:55:01;;;;;;;7.50;4.82;;;;;;;;;;6258422;22;20031;-84
2022/05/29 00:57:37;;;;;;;6.93;4.13;;;;;;;;;;6252959;22;20030;-86
2022/05/29 01:00:27;;;;;;;7.07;4.20;;;;;;;;;;6228597;22;20000;-84
2022/05/29 01:02:53;;;;;;;;;;;;;;;;;;6264482;22;20008;-87
2022/05/29 01:05:22;;;;;;;7.10;4.18;;;;;;;;;;6279757;22;20033;-88
2022/05/29 01:07:58;;;;;;;6.10;4.15;;;;;;;;;;6285030;22;20078;-85
2022/05/29 01:10:31;;;;;;;5.95;4.25;;;;;;;;;;6253357;22;20034;-88
2022/05/29 01:13:13;;;;;;;5.38;3.80;;;;;;;;;;6253733;22;20006;-85
2022/05/29 01:15:44;;;;;;;8.60;4.15;;;;;;;;;;6253157;22;20052;-85
2022/05/29 01:18:12;;;;;;;7.63;4.32;;;;;;;;;;6285371;22;20008;-88
2022/05/29 01:21:07;;;;;;;6.10;3.75;;;;;;;;;;6277759;22;20070;-84
2022/05/29 01:23:38;;;;;;;7.10;4.22;;;;;;;;;;6235615;22;20140;-87
2022/05/29 01:26:22;;;;;;;6.95;4.45;;;;;;;;;;6278192;22;20381;-85
2022/05/29 01:29:06;;;;;;;10.43;4.30;;;;;;;;;;6283509;22;20413;-86
2022/05/29 01:32:07;;;;;;;7.70;4.50;;;;;;;;;;6276398;22;19999;-84
2022/05/29 01:34:36;;;;;;;5.05;4.28;;;;;;;;;;6158282;23;20052;-84
2022/05/29 01:37:08;;;;;;;7.57;4.80;;;;;;;;;;6228957;22;20008;-85
2022/05/29 01:40:01;;;;;;;6.47;4.45;;;;;;;;;;6288215;22;20023;-85
2022/05/29 01:42:47;;;;;;;6.38;5.10;;;;;;;;;;6279255;22;20000;-85
2022/05/29 01:45:18;;;;;;;9.27;5.07;;;;;;;;;;6285264;22;20014;-86
2022/05/29 01:47:46;;;;;;;8.05;5.07;;;;;;;;;;6294239;22;20004;-88
2022/05/29 01:50:34;;;;;;;7.25;5.60;;;;;;;;;;6243779;22;20010;-86
2022/05/29 01:53:02;;;;;;;8.20;5.30;;;;;;;;;;6263209;22;20004;-86
2022/05/29 01:55:36;;;;;;;6.72;5.18;;;;;;;;;;6284990;22;20069;-86
2022/05/29 01:58:08;;;;;;;7.50;5.15;;;;;;;;;;6259863;22;20042;-87
2022/05/29 02:00:34;;;;;;;8.27;5.10;;;;;;;;;;6273264;22;20012;-85
2022/05/29 02:03:11;;;;;;;6.82;5.53;;;;;;;;;;6263894;22;20028;-87
2022/05/29 02:05:57;;;;;;;9.77;5.82;;;;;;;;;;6261598;22;20516;-87
2022/05/29 02:08:43;;;;;;;8.48;5.65;;;;;;;;;;6257991;22;19999;-86
2022/05/29 02:11:12;;;;;;;7.75;5.55;;;;;;;;;;6246167;22;19994;-85
2022/05/29 02:13:48;;;;;;;7.72;5.90;;;;;;;;;;6274217;22;20027;-84
2022/05/29 02:16:46;;;;;;;13.80;5.55;;;;;;;;;;6275972;22;20019;-84
2022/05/29 02:19:19;;;;;;;7.03;5.47;;;;;;;;;;6143357;22;20018;-88
2022/05/29 02:21:48;;;;;;;9.63;5.78;;;;;;;;;;6286754;22;20031;-88
2022/05/29 02:24:17;;;;;;;10.70;6.22;;;;;;;;;;6265675;22;20366;-86
2022/05/29 02:26:54;;;;;;;8.90;5.78;;;;;;;;;;6243284;22;20039;-87
2022/05/29 02:29:20;;;;;;;7.97;5.72;;;;;;;;;;6247368;22;20026;-87
2022/05/29 02:32:10;;;;;;;9.38;5.60;;;;;;;;;;6244166;22;20008;-86
2022/05/29 02:34:51;;;;;;;7.95;5.88;;;;;;;;;;6291712;22;20073;-87
2022/05/29 02:37:39;;;;;;;9.30;5.95;;;;;;;;;;6261609;22;20078;-87
2022/05/29 02:40:12;;;;;;;8.18;6.03;;;;;;;;;;6261513;22;20011;-87
2022/05/29 02:42:42;;;;;;;6.97;5.88;;;;;;;;;;6281777;22;19999;-89
2022/05/29 02:45:34;;;;;;;7.55;5.53;;;;;;;;;;6226990;22;20007;-88
2022/05/29 02:48:33;;;;;;;8.20;5.32;;;;;;;;;;6241256;22;19992;-88
2022/05/29 02:51:09;;;;;;;6.60;5.28;;;;;;;;;;6285376;22;20047;-90
2022/05/29 02:53:35;;;;;;;9.32;5.57;;;;;;;;;;6262747;22;20019;-86
2022/05/29 02:56:03;;;;;;;8.40;5.38;;;;;;;;;;6237778;22;20003;-87
2022/05/29 02:58:29;;;;;;;7.75;4.82;;;;;;;;;;6284483;22;20000;-87
2022/05/29 03:01:12;;;;;;;5.80;5.20;;;;;;;;;;6236650;22;20004;-87
2022/05/29 03:03:48;;;;;;;8.27;5.50;;;;;;;;;;6284328;22;19995;-87
2022/05/29 03:06:27;;;;;;;13.57;6.50;;;;;;;;;;6257105;22;20007;-86
2022/05/29 03:09:05;;;;;;;14.30;7.22;;;;;;;;;;6258451;22;20008;-87
2022/05/29 03:11:39;;;;;;;13.20;7.20;;;;;;;;;;6284163;22;20010;-89
2022/05/29 03:14:24;;;;;;;10.27;6.80;;;;;;;;;;6263895;22;20007;-86
2022/05/29 03:17:17;;;;;;;11.30;7.43;;;;;;;;;;6284180;22;20007;-86
2022/05/29 03:20:04;;;;;;;13.38;7.50;;;;;;;;;;6278086;22;20010;-87
2022/05/29 03:22:37;;;;;;;12.13;7.72;;;;;;;;;;6281937;22;20008;-88
2022/05/29 03:25:19;;;;;;;9.93;7.78;;;;;;;;;;6281138;22;20027;-85
2022/05/29 03:27:46;;;;;;;14.05;7.85;;;;;;;;;;6252635;22;20003;-88
2022/05/29 03:30:23;;;;;;;13.57;7.82;;;;;;;;;;6253057;22;20003;-86
2022/05/29 03:32:50;;;;;;;18.83;8.55;;;;;;;;;;6255351;22;20011;-85
2022/05/29 03:35:25;;;;;;;13.63;7.72;;;;;;;;;;6279260;22;20589;-88
2022/05/29 03:37:52;;;;;;;13.13;8.05;;;;;;;;;;6254651;22;20004;-89
2022/05/29 03:40:18;;;;;;;15.27;8.77;;;;;;;;;;6251109;22;20008;-88
2022/05/29 03:42:44;;;;;;;13.93;7.95;;;;;;;;;;6279114;22;20342;-90
2022/05/29 03:45:09;;;;;;;10.43;7.28;;;;;;;;;;6251857;22;20007;-86
2022/05/29 03:47:36;;;;;;;13.20;7.97;;;;;;;;;;6276052;22;20472;-88
2022/05/29 03:50:02;;;;;;;13.15;8.60;;;;;;;;;;6256833;22;20072;-86
2022/05/29 03:52:28;;;;;;;11.93;8.35;;;;;;;;;;6259796;22;20008;-87
2022/05/29 03:54:54;;;;;;;13.30;8.55;;;;;;;;;;6292912;22;19991;-85
2022/05/29 03:57:19;;;;;;;13.35;8.55;;;;;;;;;;6295681;22;20060;-87
2022/05/29 03:59:45;;;;;;;13.52;8.93;;;;;;;;;;6287015;22;20617;-82
2022/05/29 04:02:11;;;;;;;13.88;8.93;;;;;;;;;;6278994;22;20011;-84
2022/05/29 04:04:37;;;;;;;13.05;8.55;;;;;;;;;;6305000;22;19984;-85
2022/05/29 04:07:03;;;;;;;12.27;8.60;;;;;;;;;;6303391;22;20002;-85
2022/05/29 04:12:13;;;;;;;15.23;8.50;;;;;;;;;;6297468;22;20077;-89
2022/05/29 04:14:40;;;;;;;14.07;8.30;;;;;;;;;;6255207;22;20521;-87
2022/05/29 04:17:06;;;;;;;10.68;7.85;;;;;;;;;;6259963;22;20003;-86
2022/05/29 04:19:32;;;;;;;11.90;7.45;;;;;;;;;;6260396;22;20068;-86
2022/05/29 04:21:58;;;;;;;17.90;6.90;;;;;;;;;;6252001;22;20027;-87
2022/05/29 04:24:23;;;;;;;10.23;7.13;;;;;;;;;;6277081;22;20003;-87
2022/05/29 04:26:49;;;;;;;10.50;7.05;;;;;;;;;;6279425;22;19999;-86
2022/05/29 04:29:15;;;;;;;14.65;8.18;;;;;;;;;;6254544;22;20004;-87
2022/05/29 04:34:26;;;;;;;12.82;7.80;;;;;;;;;;6259601;22;20010;-88
2022/05/29 04:36:51;;;;;;;13.35;7.15;;;;;;;;;;6256999;22;20011;-86
2022/05/29 04:39:16;;;;;;;11.93;7.30;;;;;;;;;;6283487;22;19984;-87
2022/05/29 04:41:42;;;;;;;13.05;7.50;;;;;;;;;;6290231;22;20038;-87
2022/05/29 04:44:07;;;;;;;15.25;7.35;;;;;;;;;;6279212;22;20004;-90
2022/05/29 04:46:33;;;;;;;10.93;6.88;;;;;;;;;;6279346;22;20000;-87
2022/05/29 04:48:59;;;;;;;8.45;5.28;;;;;;;;;;6278435;22;20027;-91
2022/05/29 04:51:24;;;;;;;8.48;5.25;;;;;;;;;;6277212;22;20000;-91
2022/05/29 04:53:49;;;;;;;10.20;5.70;;;;;;;;;;6283179;22;20073;-90
2022/05/29 04:56:15;;;;;;;10.07;5.80;;;;;;;;;;6258749;22;20098;-89
2022/05/29 04:58:40;;;;;;;11.13;5.20;;;;;;;;;;6235224;22;20004;-87
2022/05/29 05:01:06;;;;;;;8.98;5.50;;;;;;;;;;6290062;22;20078;-86
2022/05/29 05:03:31;;;;;;;11.07;6.30;;;;;;;;;;6291567;22;20008;-87
2022/05/29 05:05:57;;;;;;;10.52;5.32;;;;;;;;;;6281744;22;20004;-83
2022/05/29 05:08:23;;;;;;;7.47;4.72;;;;;;;;;;6280425;22;20007;-87
2022/05/29 05:10:48;;;;;;;10.05;5.05;;;;;;;;;;6252440;22;20425;-85
2022/05/29 05:13:14;;;;;;;11.23;5.45;;;;;;;;;;6277415;22;20000;-87
2022/05/29 05:15:39;;;;;;;12.13;6.47;;;;;;;;;;6251837;22;20389;-86
2022/05/29 05:18:05;;;;;;;10.90;5.35;;;;;;;;;;6249868;22;20061;-84
2022/05/29 05:20:30;;;;;;;8.02;4.78;;;;;;;;;;6225906;22;20027;-86
2022/05/29 05:22:57;;;;;;;6.75;4.30;;;;;;;;;;6298597;22;20003;-86
2022/05/29 05:25:22;;;;;;;9.27;4.00;;;;;;;;;;6294580;22;19991;-83
2022/05/29 05:27:48;;;;;;;7.30;4.43;;;;;;;;;;6279798;22;20079;-87
2022/05/29 05:30:13;;;;;;;7.30;4.32;;;;;;;;;;6280202;22;20070;-88
2022/05/29 05:32:39;;;;;;;17.25;8.60;;;;;;;;;;6232196;22;20026;-87
2022/05/29 05:35:07;;;;;;;14.98;8.27;;;;;;;;;;6279416;22;20377;-86
2022/05/29 05:37:35;;;;;;;9.52;5.47;;;;;;;;;;6227330;22;20090;-85
2022/05/29 05:40:02;;;;;;;12.30;4.88;;;;;;;;;;6279390;22;20449;-83
2022/05/29 05:42:27;;;;;;;6.03;3.83;;;;;;;;;;6249511;22;20008;-86
2022/05/29 05:44:53;;;;;;;14.93;3.65;;;;;;;;;;6280899;22;20023;-86
2022/05/29 05:47:22;;;;;;;5.85;3.90;;;;;;;;;;6278354;22;20379;-84
2022/05/29 05:49:49;;;;;;;9.90;3.88;;;;;;;;;;6277772;22;20481;-84
2022/05/29 05:52:15;;;;;;;9.55;3.83;;;;;;;;;;6249641;22;20035;-84
2022/05/29 05:54:40;;;;;;;9.23;3.20;;;;;;;;;;6274900;22;20008;-84
2022/05/29 05:57:06;;;;;;;8.32;3.25;;;;;;;;;;6277204;22;20496;-84
2022/05/29 05:59:32;;;;;;;6.57;3.20;;;;;;;;;;6253328;22;20414;-86
2022/05/29 06:01:58;;;;;;;3.53;2.80;;;;;;;;;;6251409;22;20004;-84
2022/05/29 06:04:24;;;;;;;8.60;2.85;;;;;;;;;;6282234;22;20079;-86
2022/05/29 06:06:49;;;;;;;3.72;2.92;;;;;;;;;;6277713;22;20010;-85
2022/05/29 06:09:17;;;;;;;7.07;3.08;;;;;;;;;;6287367;22;20003;-86
2022/05/29 06:11:42;;;;;;;3.85;2.80;;;;;;;;;;6264700;22;20010;-85
2022/05/29 06:14:08;;;;;;;5.47;3.08;;;;;;;;;;6281046;22;20427;-86
2022/05/29 06:16:34;;;;;;;6.45;3.35;;;;;;;;;;6252900;22;20509;-84
2022/05/29 06:18:59;;;;;;;6.10;3.33;;;;;;;;;;6249545;22;20010;-85
2022/05/29 06:21:25;;;;;;;6.78;3.65;;;;;;;;;;6276705;22;20031;-85
2022/05/29 06:23:50;;;;;;;5.13;3.20;;;;;;;;;;6249778;22;20000;-85
2022/05/29 06:26:16;;;;;;;11.93;2.90;;;;;;;;;;6277252;22;20034;-84
2022/05/29 06:28:41;;;;;;;4.90;2.72;;;;;;;;;;6283734;22;20337;-84
2022/05/29 06:31:08;;;;;;;4.00;2.90;;;;;;;;;;6250004;22;20026;-85
2022/05/29 06:33:34;;;;;;;4.47;3.30;;;;;;;;;;6259248;22;19996;-86
2022/05/29 06:36:20;;;;;;;12.68;3.90;;;;;;;;;;6207379;22;20089;-87
2022/05/29 06:38:46;;;;;;;5.13;2.95;;;;;;;;;;6216197;22;20014;-86
2022/05/29 06:41:13;;;;;;;5.20;3.40;;;;;;;;;;6284831;22;19999;-84
2022/05/29 06:43:38;;;;;;;7.53;3.28;;;;;;;;;;6227401;22;20063;-85
2022/05/29 06:46:04;;;;;;;4.35;3.22;;;;;;;;;;6276675;22;19999;-85
2022/05/29 06:48:31;;;;;;;4.35;3.22;;;;;;;;;;6250533;22;20011;-85
2022/05/29 06:50:58;;;;;;;5.15;3.60;;;;;;;;;;6283192;22;20008;-88
2022/05/29 06:53:24;;;;;;;5.55;3.40;;;;;;;;;;6265713;22;20074;-86
2022/05/29 06:55:55;;;;;;;10.35;3.67;;;;;;;;;;6293750;22;20061;-86
2022/05/29 06:58:22;;;;;;;7.78;3.83;;;;;;;;;;6293844;22;20004;-84
2022/05/29 07:08:59;;;;;;;5.93;3.78;;;;;;;;;;6275548;22;20023;-87
2022/05/29 07:11:27;;;;;;;8.88;3.50;;;;;;;;;;6281256;22;20000;-85
2022/05/29 07:13:53;;;;;;;9.25;3.70;;;;;;;;;;6277748;22;20015;-87
2022/05/29 07:16:19;;;;;;;5.57;3.33;;;;;;;;;;6250161;22;20007;-86
2022/05/29 07:18:44;;;;;;;6.50;3.92;;;;;;;;;;6289016;22;20011;-86
2022/05/29 07:21:10;;;;;;;6.05;3.45;;;;;;;;;;6276276;22;19999;-86
2022/05/29 07:23:36;;;;;;;11.68;3.97;;;;;;;;;;6224216;22;20008;-85
2022/05/29 07:26:02;;;;;;;6.82;3.38;;;;;;;;;;6249612;22;20010;-85
2022/05/29 07:28:27;;;;;;;15.32;3.70;;;;;;;;;;6278725;22;20004;-86
2022/05/29 07:30:54;;;;;;;4.95;3.92;;;;;;;;;;6278162;22;20078;-85
2022/05/29 07:33:20;;;;;;;11.02;4.30;;;;;;;;;;6226745;22;20999;-87
2022/05/29 07:35:45;;;;;;;7.45;4.07;;;;;;;;;;6224854;22;20004;-86
2022/05/29 07:38:11;;;;;;;7.53;4.40;;;;;;;;;;6275788;22;20004;-86
2022/05/29 07:40:37;;;;;;;10.25;4.47;;;;;;;;;;6289897;22;20004;-86
2022/05/29 07:43:22;;;;;;;7.43;4.28;;;;;;;;;;6277968;22;20007;-86
2022/05/29 07:45:56;;;;;;;7.15;4.78;;;;;;;;;;6276830;22;20007;-86
2022/05/29 07:48:26;;;;;;;8.35;4.95;;;;;;;;;;6225458;22;20000;-87
2022/05/29 07:50:51;;;;;;;9.88;4.72;;;;;;;;;;6230944;22;20008;-87
2022/05/29 07:53:17;;;;;;;4.97;3.85;;;;;;;;;;6278887;22;20056;-88
2022/05/29 07:55:45;;;;;;;10.20;4.00;;;;;;;;;;6250600;22;20053;-88
2022/05/29 07:58:12;;;;;;;9.07;4.20;;;;;;;;;;6292721;22;20006;-85
2022/05/29 08:00:38;;;;;;;6.13;4.25;;;;;;;;;;6262344;22;20022;-85
2022/05/29 08:03:03;;;;;;;6.55;4.28;;;;;;;;;;6290153;22;19980;-87
2022/05/29 08:05:31;;;;;;;7.70;4.40;;;;;;;;;;6280063;22;20003;-86
2022/05/29 08:07:57;;;;;;;9.05;4.45;;;;;;;;;;6277701;22;20082;-85
2022/05/29 08:10:22;;;;;;;7.45;4.60;;;;;;;;;;6250517;22;20355;-87
2022/05/29 08:12:48;;;;;;;11.98;4.13;;;;;;;;;;6252945;22;20022;-87
2022/05/29 08:15:14;;;;;;;6.57;4.18;;;;;;;;;;6274001;22;20008;-87
2022/05/29 08:17:39;;;;;;;7.43;4.40;;;;;;;;;;6275357;22;20004;-85
2022/05/29 08:20:05;;;;;;;6.68;4.05;;;;;;;;;;6248715;22;20034;-85
2022/05/29 08:22:31;;;;;;;9.93;4.30;;;;;;;;;;6273935;22;20374;-83
2022/05/29 08:30:41;;;;;;;8.38;4.60;;;;;;;;;;6273874;22;20087;-86
2022/05/29 08:33:27;;;;;;;9.15;4.10;;;;;;;;;;6252904;22;20448;-84
2022/05/29 08:35:59;;;;;;;7.32;4.50;;;;;;;;;;6275893;22;20098;-85
2022/05/29 08:38:24;;;;;;;9.75;5.13;;;;;;;;;;6282505;22;20349;-85
2022/05/29 08:40:53;;;;;;;9.32;5.30;;;;;;;;;;6275983;22;19999;-85
2022/05/29 08:43:40;;;;;;;9.20;4.68;;;;;;;;;;6274149;22;20431;-85
2022/05/29 08:46:17;;;;;;;7.82;4.43;;;;;;;;;;6287466;22;20039;-83
2022/05/29 08:48:42;;;;;;;9.52;4.20;;;;;;;;;;6291075;22;20011;-85
2022/05/29 08:51:19;;;;;;;13.60;4.60;;;;;;;;;;6276423;22;20082;-86
2022/05/29 08:54:12;;;;;;;9.25;4.60;;;;;;;;;;6276087;22;20004;-87
2022/05/29 08:56:57;;;;;;;8.55;4.88;;;;;;;;;;6269385;22;20000;-86
2022/05/29 08:59:49;;;;;;;11.13;5.00;;;;;;;;;;6239071;22;20014;-85
2022/05/29 09:02:37;;;;;;;11.95;5.05;;;;;;;;;;6293992;22;20000;-85
2022/05/29 09:05:23;;;;;;;8.27;4.75;;;;;;;;;;6282227;22;20003;-85
2022/05/29 09:07:49;;;;;;;7.30;5.05;;;;;;;;;;6280558;22;20011;-85
2022/05/29 09:10:25;;;;;;;9.32;4.80;;;;;;;;;;6256778;22;20004;-87
2022/05/29 09:12:52;;;;;;;12.88;4.95;;;;;;;;;;6228019;22;19995;-86
2022/05/29 09:15:31;;;;;;;9.48;4.72;;;;;;;;;;6250409;22;20411;-85
2022/05/29 09:18:03;;;;;;;7.18;4.90;;;;;;;;;;6226516;22;20004;-85
2022/05/29 09:20:44;;;;;;;8.60;4.57;;;;;;;;;;6251080;22;20007;-87
2022/05/29 09:23:13;;;;;;;14.23;4.75;;;;;;;;;;6275396;22;20000;-85
2022/05/29 09:25:40;;;;;;;9.05;5.22;;;;;;;;;;6248466;22;20419;-85
2022/05/29 09:28:27;;;;;;;6.28;4.60;;;;;;;;;;6250666;22;19996;-89
2022/05/29 09:31:04;;;;;;;12.93;4.88;;;;;;;;;;6277492;22;20006;-85
2022/05/29 09:33:30;;;;;;;10.00;3.90;;;;;;;;;;6255207;22;20007;-87
2022/05/29 09:36:08;;;;;;;6.43;4.38;;;;;;;;;;6277710;22;20346;-87
2022/05/29 09:38:42;;;;;;;9.38;4.88;;;;;;;;;;6279789;22;20027;-87
2022/05/29 09:41:29;;;;;;;6.75;4.88;;;;;;;;;;6276561;22;20007;-84
2022/05/29 09:44:16;;;;;;;8.05;4.55;;;;;;;;;;6258571;22;20054;-85
2022/05/29 09:46:51;;;;;;;9.45;5.10;;;;;;;;;;6277945;22;20003;-85
2022/05/29 09:49:40;;;;;;;8.45;4.90;;;;;;;;;;6277766;22;20004;-85
2022/05/29 09:52:19;;;;;;;10.75;5.40;;;;;;;;;;6276055;22;20007;-87
2022/05/29 09:54:55;;;;;;;8.65;4.15;;;;;;;;;;6278643;22;20039;-85
2022/05/29 09:57:22;;;;;;;5.82;4.22;;;;;;;;;;6280808;22;20007;-86
2022/05/29 09:59:47;;;;;;;5.75;3.53;;;;;;;;;;6280006;22;20089;-84
2022/05/29 10:02:24;;;;;;;6.75;3.80;;;;;;;;;;6251917;22;20000;-89
2022/05/29 10:04:51;;;;;;;7.07;3.67;;;;;;;;;;6276403;22;20011;-86
2022/05/29 10:07:36;;;;;;;5.22;3.42;;;;;;;;;;6276095;22;20083;-83
2022/05/29 10:10:06;;;;;;;7.68;3.83;;;;;;;;;;6250576;22;20117;-85
2022/05/29 10:12:44;;;;;;;5.30;3.38;;;;;;;;;;6277637;22;20061;-86
2022/05/29 10:15:26;;;;;;;7.85;4.43;;;;;;;;;;6277291;22;20000;-86
2022/05/29 10:18:00;;;;;;;7.95;4.00;;;;;;;;;;6283977;22;20031;-84
2022/05/29 10:20:42;;;;;;;5.57;3.75;;;;;;;;;;6259064;22;20008;-83
2022/05/29 10:23:12;;;;;;;6.43;3.80;;;;;;;;;;6249977;22;20000;-88
2022/05/29 10:25:40;;;;;;;6.18;3.78;;;;;;;;;;6277761;22;20000;-84
2022/05/29 10:28:12;;;;;;;5.60;3.55;;;;;;;;;;6279331;22;20004;-86
2022/05/29 10:30:48;;;;;;;5.30;3.40;;;;;;;;;;6256126;22;19999;-86
2022/05/29 10:33:41;;;;;;;8.10;3.60;;;;;;;;;;6257334;22;20004;-87
2022/05/29 10:36:08;;;;;;;10.43;4.10;;;;;;;;;;6270464;22;20401;-83
2022/05/29 10:38:34;;;;;;;6.18;3.58;;;;;;;;;;6276235;22;20008;-84
2022/05/29 10:41:00;;;;;;;8.02;3.60;;;;;;;;;;6281061;22;20007;-86
2022/05/29 10:43:45;;;;;;;6.65;3.47;;;;;;;;;;6278065;22;20004;-84
2022/05/29 10:46:11;;;;;;;5.40;3.63;;;;;;;;;;6276297;22;20000;-85
2022/05/29 10:49:01;;;;;;;7.55;4.07;;;;;;;;;;6277068;22;20384;-83
2022/05/29 10:51:38;;;;;;;11.25;3.92;;;;;;;;;;6276576;22;20419;-83
2022/05/29 10:54:10;;;;;;;4.57;3.60;;;;;;;;;;6275688;22;20014;-84
2022/05/29 10:56:51;;;;;;;10.27;4.40;;;;;;;;;;6276248;22;20015;-82
2022/05/29 10:59:20;;;;;;;12.18;4.07;;;;;;;;;;6275932;22;20058;-85
2022/05/29 11:04:42;;;;;;;8.32;4.38;;;;;;;;;;6285350;22;20015;-84
2022/05/29 11:07:21;;;;;;;10.48;4.63;;;;;;;;;;6277307;22;20001;-84
2022/05/29 11:09:49;;;;;;;12.50;4.30;;;;;;;;;;6277840;22;20465;-87
2022/05/29 11:12:17;;;;;;;5.95;4.25;;;;;;;;;;6281310;22;20007;-85
2022/05/29 11:15:04;;;;;;;10.32;4.28;;;;;;;;;;6281906;22;19999;-85
2022/05/29 11:18:07;;;;;;;9.75;4.15;;;;;;;;;;6280593;22;20006;-84
2022/05/29 11:20:44;;;;;;;8.20;4.47;;;;;;;;;;6283815;22;20004;-86
2022/05/29 11:23:38;;;;;;;8.27;4.60;;;;;;;;;;6283445;22;19999;-84
2022/05/29 11:26:18;;;;;;;6.82;4.43;;;;;;;;;;6287677;22;19992;-86
2022/05/29 11:29:05;;;;;;;8.20;5.10;;;;;;;;;;6277251;22;20000;-84
2022/05/29 11:31:34;;;;;;;11.60;4.95;;;;;;;;;;6276223;22;20014;-85
2022/05/29 11:34:26;;;;;;;17.42;5.13;;;;;;;;;;6275827;22;19999;-83
2022/05/29 11:36:55;;;;;;;9.60;4.78;;;;;;;;;;6276261;22;19999;-86
2022/05/29 11:39:26;;;;;;;7.32;4.78;;;;;;;;;;6278125;22;20000;-85
2022/05/29 11:42:20;;;;;;;9.88;4.88;;;;;;;;;;6276546;22;20491;-87
2022/05/29 11:44:57;;;;;;;13.50;5.45;;;;;;;;;;6281085;22;20074;-84
2022/05/29 11:53:28;;;;;;;9.50;5.90;;;;;;;;;;6277532;22;20011;-87
2022/05/29 11:55:55;;;;;;;9.13;5.97;;;;;;;;;;6279329;22;20008;-88
2022/05/29 11:58:42;;;;;;;11.40;6.32;;;;;;;;;;6251409;22;20004;-85
2022/05/29 12:01:15;;;;;;;11.88;6.22;;;;;;;;;;6274197;22;20516;-83
2022/05/29 12:03:56;;;;;;;14.40;5.65;;;;;;;;;;6275458;22;20000;-87
2022/05/29 12:06:33;;;;;;;27.55;8.95;;;;;;;;;;6254936;22;20010;-84
2022/05/29 12:09:01;;;;;;;13.95;7.93;;;;;;;;;;6254860;22;20016;-85
2022/05/29 12:11:38;;;;;;;13.60;8.02;;;;;;;;;;6287961;22;20004;-84
2022/05/29 12:14:22;;;;;;;12.57;7.88;;;;;;;;;;6278110;22;20007;-85
2022/05/29 12:16:50;;;;;;;15.00;9.38;;;;;;;;;;6280829;22;20053;-84
2022/05/29 12:19:36;;;;;;;18.67;9.80;;;;;;;;;;6279094;22;19996;-84
2022/05/29 12:22:04;;;;;;;20.42;10.65;;;;;;;;;;6276898;22;20023;-85
2022/05/29 12:24:32;;;;;;;22.77;12.23;;;;;;;;;;6252246;22;19999;-86
2022/05/29 12:27:11;;;;;;;24.40;12.93;;;;;;;;;;6278245;22;20000;-85
2022/05/29 12:29:48;;;;;;;29.08;14.27;;;;;;;;;;6283959;22;20003;-85
2022/05/29 12:32:19;;;;;;;24.05;13.57;;;;;;;;;;6279133;22;20007;-85
2022/05/29 12:34:47;;;;;;;;;;;;;;;;;;6283964;22;20435;-86
2022/05/29 12:37:30;;;;;;;27.67;16.08;;;;;;;;;;6279288;22;19949;-87
2022/05/29 12:40:33;;;;;;;25.27;15.23;;;;;;;;;;6279661;22;20008;-85
2022/05/29 12:42:58;;;;;;;28.25;14.23;;;;;;;;;;6279378;22;20035;-85
2022/05/29 12:45:45;;;;;;;24.55;13.90;;;;;;;;;;6280065;22;19999;-85
2022/05/29 12:48:51;;;;;;;26.70;13.73;;;;;;;;;;6279857;22;20007;-83
2022/05/29 12:51:30;;;;;;;29.52;14.32;;;;;;;;;;6283079;22;20362;-86
2022/05/29 12:54:10;;;;;;;27.20;15.23;;;;;;;;;;6278880;22;20007;-84
2022/05/29 12:56:57;;;;;;;31.08;15.23;;;;;;;;;;6285281;22;19995;-87
2022/05/29 12:59:31;;;;;;;30.73;14.35;;;;;;;;;;6278581;22;20004;-87
2022/05/29 13:02:13;;;;;;;29.42;15.77;;;;;;;;;;6279684;22;20000;-87
2022/05/29 13:05:10;;;;;;;33.00;15.73;;;;;;;;;;6229228;22;20053;-85
2022/05/29 13:07:54;;;;;;;28.38;15.77;;;;;;;;;;6281116;22;20015;-85
2022/05/29 13:10:20;;;;;;;28.35;15.90;;;;;;;;;;6280970;22;20341;-86
2022/05/29 13:12:51;;;;;;;33.85;17.20;;;;;;;;;;6257098;22;20071;-86
2022/05/29 13:15:31;;;;;;;31.27;16.92;;;;;;;;;;6252228;22;20038;-85
2022/05/29 13:18:11;;;;;;;;;;;;;;;;;;6279733;22;20018;-83
2022/05/29 13:21:16;;;;;;;39.30;18.83;;;;;;;;;;6255929;22;20318;-85
2022/05/29 13:23:46;;;;;;;45.90;19.42;;;;;;;;;;6244133;22;20011;-83
2022/05/29 13:26:15;;;;;;;33.40;19.52;;;;;;;;;;6253086;22;20007;-83
2022/05/29 13:28:43;;;;;;;31.92;19.65;;;;;;;;;;6278763;22;20449;-82
2022/05/29 13:31:09;;;;;;;38.85;20.63;;;;;;;;;;6276990;22;20341;-83
2022/05/29 13:33:54;;;;;;;42.85;21.15;;;;;;;;;;6253641;22;20050;-83
2022/05/29 13:36:43;;;;;;;34.78;20.80;;;;;;;;;;6279899;22;19999;-83
2022/05/29 13:39:24;;;;;;;37.33;21.90;;;;;;;;;;6277184;22;20053;-84
2022/05/29 13:41:57;;;;;;;37.00;21.00;;;;;;;;;;6285982;22;20282;-84
2022/05/29 13:44:35;;;;;;;39.13;21.33;;;;;;;;;;6251508;22;20035;-84
2022/05/29 13:47:18;;;;;;;40.75;22.08;;;;;;;;;;6276925;22;20011;-84
2022/05/29 13:50:10;;;;;;;38.92;22.50;;;;;;;;;;6280566;22;20007;-85
2022/05/29 13:52:52;;;;;;;38.42;20.02;;;;;;;;;;6256172;22;20034;-84
2022/05/29 13:55:21;;;;;;;35.67;20.98;;;;;;;;;;6279190;22;20103;-83
2022/05/29 14:03:58;;;;;;;35.60;20.02;;;;;;;;;;6263627;22;19991;-85
2022/05/29 14:06:39;;;;;;;35.63;19.65;;;;;;;;;;6238540;22;20442;-84
2022/05/29 14:09:07;;;;;;;33.35;20.05;;;;;;;;;;6214775;22;20011;-84
2022/05/29 14:11:55;;;;;;;36.15;21.42;;;;;;;;;;6237029;22;20003;-85
2022/05/29 14:14:30;;;;;;;39.10;21.38;;;;;;;;;;6286318;22;20002;-84
2022/05/29 14:16:59;;;;;;;42.67;21.27;;;;;;;;;;6287604;22;20342;-85
2022/05/29 14:19:34;;;;;;;40.40;23.03;;;;;;;;;;6253289;22;20389;-85
2022/05/29 14:22:47;;;;;;;35.15;20.13;;;;;;;;;;6256746;22;20011;-85
2022/05/29 14:25:19;;;;;;;35.53;21.35;;;;;;;;;;6240086;22;20042;-84
2022/05/29 14:28:04;;;;;;;35.50;20.65;;;;;;;;;;6289503;22;20019;-83
2022/05/29 14:30:38;;;;;;;44.70;23.33;;;;;;;;;;6288572;22;19996;-83
2022/05/29 14:33:16;;;;;;;33.47;21.20;;;;;;;;;;6295036;22;20012;-84
2022/05/29 14:36:00;;;;;;;41.80;20.85;;;;;;;;;;6292253;22;20086;-86
2022/05/29 14:38:35;;;;;;;40.67;20.63;;;;;;;;;;6288022;22;20007;-85
2022/05/29 14:41:01;;;;;;;37.95;20.73;;;;;;;;;;6291847;22;19995;-84
2022/05/29 14:43:28;;;;;;;40.67;22.77;;;;;;;;;;6279109;22;20031;-84
2022/05/29 14:46:00;;;;;;;39.47;21.45;;;;;;;;;;6300621;22;19988;-85
2022/05/29 14:48:29;;;;;;;43.60;21.38;;;;;;;;;;6304290;22;19998;-81
2022/05/29 14:50:56;;;;;;;35.35;20.45;;;;;;;;;;6298807;22;19996;-84
2022/05/29 14:53:36;;;;;;;35.72;19.52;;;;;;;;;;6262520;22;20008;-84
2022/05/29 14:56:07;;;;;;;35.65;18.80;;;;;;;;;;6276402;22;20381;-88
2022/05/29 14:58:35;;;;;;;36.22;19.17;;;;;;;;;;6282298;22;20008;-84
2022/05/29 15:01:05;;;;;;;38.03;19.48;;;;;;;;;;6280507;22;19996;-84
2022/05/29 15:03:32;;;;;;;43.53;20.05;;;;;;;;;;6279720;22;20346;-84
2022/05/29 15:05:58;;;;;;;39.95;20.35;;;;;;;;;;6266935;22;20066;-83
2022/05/29 15:11:14;;;;;;;36.47;18.60;;;;;;;;;;6257800;22;20018;-82
2022/05/29 15:13:58;;;;;;;39.33;18.77;;;;;;;;;;6247242;22;20010;-83
2022/05/29 15:16:44;;;;;;;34.70;18.08;;;;;;;;;;6233635;22;20003;-83
2022/05/29 15:25:19;;;;;;;28.17;16.02;;;;;;;;;;6245546;22;20006;-82
2022/05/29 15:27:48;;;;;;;30.23;16.08;;;;;;;;;;6218196;22;20007;-83
2022/05/29 15:30:17;;;;;;;27.70;15.88;;;;;;;;;;6241141;22;20029;-82
2022/05/29 15:32:43;;;;;;;35.17;17.38;;;;;;;;;;6248269;22;20007;-82
2022/05/29 15:35:47;;;;;;;31.42;18.23;;;;;;;;;;6234575;22;20011;-83
2022/05/29 15:38:31;;;;;;;27.15;17.33;;;;;;;;;;6129432;23;20005;-84
2022/05/29 15:41:28;;;;;;;27.10;16.85;;;;;;;;;;6249632;22;20030;-83
2022/05/29 15:44:06;;;;;;;29.23;17.15;;;;;;;;;;6247607;22;20022;-82
2022/05/29 15:46:44;;;;;;;27.85;16.25;;;;;;;;;;6303534;22;19988;-81
2022/05/29 15:49:15;;;;;;;32.92;16.65;;;;;;;;;;6242298;22;20008;-82
2022/05/29 15:51:48;;;;;;;29.92;16.92;;;;;;;;;;6271512;22;20010;-82
2022/05/29 15:54:49;;;;;;;32.45;16.42;;;;;;;;;;6287898;22;20000;-83